ADDS METAR Data INFO
IDs: Format: Raw Decoded Include TAF

Data at: 1900 UTC 22 Sep 2017

METAR for:KHLX (Hillsville/Twin Cnty, VA, US)
Text:KHLX 221855Z AUTO 00000KT 10SM SCT042 SCT050 26/13 A3015 RMK AO2 T02550128
Temperature: 25.5°C ( 78°F)
Dewpoint: 12.8°C ( 55°F) [RH = 45%]
Pressure (altimeter):30.15 inches Hg (1021.1 mb)
Winds:calm
Visibility:10 or more sm (16+ km)
Ceiling:at least 12,000 feet AGL
Clouds: scattered clouds at 4200 feet AGL, scattered clouds at 5000 feet AGL
QC Flag:automated observation with no human augmentation